sensor_id;sensor_type;location;lat;lon;timestamp;P1;durP1;ratioP1;P2;durP2;ratioP2
84866;SDS011;75123;51.788;4.654;2023-12-28T00:01:46;5.08;;;5.08;;
84866;SDS011;75123;51.788;4.654;2023-12-28T00:04:12;5.15;;;5.15;;
84866;SDS011;75123;51.788;4.654;2023-12-28T00:06:37;5.35;;;5.35;;
84866;SDS011;75123;51.788;4.654;2023-12-28T00:09:03;4.75;;;4.75;;
84866;SDS011;75123;51.788;4.654;2023-12-28T00:11:29;4.89;;;4.89;;
84866;SDS011;75123;51.788;4.654;2023-12-28T00:13:54;4.71;;;4.71;;
84866;SDS011;75123;51.788;4.654;2023-12-28T00:16:20;4.49;;;4.49;;
84866;SDS011;75123;51.788;4.654;2023-12-28T00:18:45;4.48;;;4.48;;
84866;SDS011;75123;51.788;4.654;2023-12-28T00:21:10;4.47;;;4.47;;
84866;SDS011;75123;51.788;4.654;2023-12-28T00:23:36;4.43;;;4.43;;
84866;SDS011;75123;51.788;4.654;2023-12-28T00:26:01;4.31;;;4.31;;
84866;SDS011;75123;51.788;4.654;2023-12-28T00:28:27;4.52;;;4.52;;
84866;SDS011;75123;51.788;4.654;2023-12-28T00:30:53;4.48;;;4.48;;
84866;SDS011;75123;51.788;4.654;2023-12-28T00:33:18;4.55;;;4.55;;
84866;SDS011;75123;51.788;4.654;2023-12-28T00:35:44;4.53;;;4.53;;
84866;SDS011;75123;51.788;4.654;2023-12-28T00:38:09;4.49;;;4.49;;
84866;SDS011;75123;51.788;4.654;2023-12-28T00:40:35;4.87;;;4.86;;
84866;SDS011;75123;51.788;4.654;2023-12-28T00:43:00;4.63;;;4.63;;
84866;SDS011;75123;51.788;4.654;2023-12-28T00:45:25;5.14;;;5.14;;
84866;SDS011;75123;51.788;4.654;2023-12-28T00:47:51;5.56;;;5.56;;
84866;SDS011;75123;51.788;4.654;2023-12-28T00:50:17;4.96;;;4.96;;
84866;SDS011;75123;51.788;4.654;2023-12-28T00:52:42;5.07;;;5.07;;
84866;SDS011;75123;51.788;4.654;2023-12-28T00:55:08;4.90;;;4.90;;
84866;SDS011;75123;51.788;4.654;2023-12-28T00:57:33;5.08;;;5.08;;
84866;SDS011;75123;51.788;4.654;2023-12-28T00:59:59;4.75;;;4.75;;
84866;SDS011;75123;51.788;4.654;2023-12-28T01:02:25;4.87;;;4.87;;
84866;SDS011;75123;51.788;4.654;2023-12-28T01:04:50;4.70;;;4.70;;
84866;SDS011;75123;51.788;4.654;2023-12-28T01:07:16;4.92;;;4.92;;
84866;SDS011;75123;51.788;4.654;2023-12-28T01:09:41;4.78;;;4.78;;
84866;SDS011;75123;51.788;4.654;2023-12-28T01:12:06;4.65;;;4.65;;
84866;SDS011;75123;51.788;4.654;2023-12-28T01:14:32;4.78;;;4.78;;
84866;SDS011;75123;51.788;4.654;2023-12-28T01:16:58;4.79;;;4.79;;
84866;SDS011;75123;51.788;4.654;2023-12-28T01:19:23;4.86;;;4.86;;
84866;SDS011;75123;51.788;4.654;2023-12-28T01:21:49;4.66;;;4.66;;
84866;SDS011;75123;51.788;4.654;2023-12-28T01:24:15;4.48;;;4.48;;
84866;SDS011;75123;51.788;4.654;2023-12-28T01:26:40;4.64;;;4.64;;
84866;SDS011;75123;51.788;4.654;2023-12-28T01:29:06;4.63;;;4.63;;
84866;SDS011;75123;51.788;4.654;2023-12-28T01:31:31;4.61;;;4.61;;
84866;SDS011;75123;51.788;4.654;2023-12-28T01:33:57;4.39;;;4.39;;
84866;SDS011;75123;51.788;4.654;2023-12-28T01:36:23;4.26;;;4.26;;
84866;SDS011;75123;51.788;4.654;2023-12-28T01:38:48;4.58;;;4.58;;
84866;SDS011;75123;51.788;4.654;2023-12-28T01:41:14;4.55;;;4.55;;
84866;SDS011;75123;51.788;4.654;2023-12-28T01:43:41;4.59;;;4.59;;
84866;SDS011;75123;51.788;4.654;2023-12-28T01:46:07;4.80;;;4.80;;
84866;SDS011;75123;51.788;4.654;2023-12-28T01:48:39;4.34;;;4.34;;
84866;SDS011;75123;51.788;4.654;2023-12-28T01:51:05;4.55;;;4.55;;
84866;SDS011;75123;51.788;4.654;2023-12-28T01:53:31;4.27;;;4.27;;
84866;SDS011;75123;51.788;4.654;2023-12-28T01:55:56;4.30;;;4.30;;
84866;SDS011;75123;51.788;4.654;2023-12-28T01:58:23;4.09;;;4.09;;
84866;SDS011;75123;51.788;4.654;2023-12-28T02:00:49;4.23;;;4.23;;
84866;SDS011;75123;51.788;4.654;2023-12-28T02:03:15;4.02;;;4.02;;
84866;SDS011;75123;51.788;4.654;2023-12-28T02:05:41;4.28;;;4.28;;
84866;SDS011;75123;51.788;4.654;2023-12-28T02:08:07;4.22;;;4.22;;
84866;SDS011;75123;51.788;4.654;2023-12-28T02:10:33;4.35;;;4.35;;
84866;SDS011;75123;51.788;4.654;2023-12-28T02:12:58;4.07;;;4.07;;
84866;SDS011;75123;51.788;4.654;2023-12-28T02:15:24;3.98;;;3.98;;
84866;SDS011;75123;51.788;4.654;2023-12-28T02:17:52;4.02;;;4.02;;
84866;SDS011;75123;51.788;4.654;2023-12-28T02:20:24;4.24;;;4.24;;
84866;SDS011;75123;51.788;4.654;2023-12-28T02:22:51;4.10;;;4.10;;
84866;SDS011;75123;51.788;4.654;2023-12-28T02:25:17;3.70;;;3.70;;
84866;SDS011;75123;51.788;4.654;2023-12-28T02:27:43;3.86;;;3.86;;
84866;SDS011;75123;51.788;4.654;2023-12-28T02:30:13;3.88;;;3.88;;
84866;SDS011;75123;51.788;4.654;2023-12-28T02:35:36;3.99;;;3.98;;
84866;SDS011;75123;51.788;4.654;2023-12-28T02:38:11;3.87;;;3.87;;
84866;SDS011;75123;51.788;4.654;2023-12-28T02:40:39;3.95;;;3.95;;
84866;SDS011;75123;51.788;4.654;2023-12-28T02:43:06;3.85;;;3.84;;
84866;SDS011;75123;51.788;4.654;2023-12-28T02:45:32;3.75;;;3.75;;
84866;SDS011;75123;51.788;4.654;2023-12-28T02:47:58;3.93;;;3.93;;
84866;SDS011;75123;51.788;4.654;2023-12-28T02:50:23;3.93;;;3.93;;
84866;SDS011;75123;51.788;4.654;2023-12-28T02:52:49;3.85;;;3.84;;
84866;SDS011;75123;51.788;4.654;2023-12-28T02:55:14;3.71;;;3.71;;
84866;SDS011;75123;51.788;4.654;2023-12-28T02:57:39;3.89;;;3.89;;
84866;SDS011;75123;51.788;4.654;2023-12-28T03:00:05;3.98;;;3.98;;
84866;SDS011;75123;51.788;4.654;2023-12-28T03:02:33;4.00;;;4.00;;
84866;SDS011;75123;51.788;4.654;2023-12-28T03:04:59;3.99;;;3.97;;
84866;SDS011;75123;51.788;4.654;2023-12-28T03:07:24;4.21;;;4.19;;
84866;SDS011;75123;51.788;4.654;2023-12-28T03:09:50;3.75;;;3.75;;
84866;SDS011;75123;51.788;4.654;2023-12-28T03:12:15;3.95;;;3.95;;
84866;SDS011;75123;51.788;4.654;2023-12-28T03:14:41;4.01;;;4.01;;
84866;SDS011;75123;51.788;4.654;2023-12-28T03:17:06;3.75;;;3.75;;
84866;SDS011;75123;51.788;4.654;2023-12-28T03:19:32;4.27;;;4.27;;
84866;SDS011;75123;51.788;4.654;2023-12-28T03:21:57;3.98;;;3.98;;
84866;SDS011;75123;51.788;4.654;2023-12-28T03:24:23;3.97;;;3.97;;
84866;SDS011;75123;51.788;4.654;2023-12-28T03:26:48;4.09;;;4.09;;
84866;SDS011;75123;51.788;4.654;2023-12-28T03:29:14;3.91;;;3.91;;
84866;SDS011;75123;51.788;4.654;2023-12-28T03:31:39;4.01;;;4.01;;
84866;SDS011;75123;51.788;4.654;2023-12-28T03:34:05;3.73;;;3.73;;
84866;SDS011;75123;51.788;4.654;2023-12-28T03:36:31;3.71;;;3.69;;
84866;SDS011;75123;51.788;4.654;2023-12-28T03:38:56;3.86;;;3.86;;
84866;SDS011;75123;51.788;4.654;2023-12-28T03:41:22;3.69;;;3.64;;
84866;SDS011;75123;51.788;4.654;2023-12-28T03:43:47;3.68;;;3.64;;
84866;SDS011;75123;51.788;4.654;2023-12-28T03:46:13;3.64;;;3.64;;
84866;SDS011;75123;51.788;4.654;2023-12-28T03:48:39;3.82;;;3.76;;
84866;SDS011;75123;51.788;4.654;2023-12-28T03:51:05;3.72;;;3.62;;
84866;SDS011;75123;51.788;4.654;2023-12-28T03:53:30;3.90;;;3.83;;
84866;SDS011;75123;51.788;4.654;2023-12-28T03:55:59;3.71;;;3.61;;
84866;SDS011;75123;51.788;4.654;2023-12-28T03:58:25;3.52;;;3.39;;
84866;SDS011;75123;51.788;4.654;2023-12-28T04:00:50;4.08;;;3.84;;
84866;SDS011;75123;51.788;4.654;2023-12-28T04:03:16;4.16;;;3.88;;
84866;SDS011;75123;51.788;4.654;2023-12-28T04:05:42;4.07;;;3.80;;
84866;SDS011;75123;51.788;4.654;2023-12-28T04:08:08;4.18;;;3.84;;
84866;SDS011;75123;51.788;4.654;2023-12-28T04:10:34;4.19;;;3.87;;
84866;SDS011;75123;51.788;4.654;2023-12-28T04:13:02;4.09;;;3.77;;
84866;SDS011;75123;51.788;4.654;2023-12-28T04:15:27;4.20;;;3.84;;
84866;SDS011;75123;51.788;4.654;2023-12-28T04:17:53;4.10;;;3.71;;
84866;SDS011;75123;51.788;4.654;2023-12-28T04:20:18;3.95;;;3.58;;
84866;SDS011;75123;51.788;4.654;2023-12-28T04:22:44;3.92;;;3.52;;
84866;SDS011;75123;51.788;4.654;2023-12-28T04:25:10;4.11;;;3.66;;
84866;SDS011;75123;51.788;4.654;2023-12-28T04:27:35;4.49;;;3.91;;
84866;SDS011;75123;51.788;4.654;2023-12-28T04:30:01;4.65;;;4.07;;
84866;SDS011;75123;51.788;4.654;2023-12-28T04:32:27;4.14;;;3.70;;
84866;SDS011;75123;51.788;4.654;2023-12-28T04:34:52;4.13;;;3.75;;
84866;SDS011;75123;51.788;4.654;2023-12-28T04:37:19;4.26;;;3.90;;
84866;SDS011;75123;51.788;4.654;2023-12-28T04:39:45;4.08;;;3.74;;
84866;SDS011;75123;51.788;4.654;2023-12-28T04:42:10;4.05;;;3.61;;
84866;SDS011;75123;51.788;4.654;2023-12-28T04:44:39;4.46;;;3.86;;
84866;SDS011;75123;51.788;4.654;2023-12-28T04:47:04;4.67;;;4.03;;
84866;SDS011;75123;51.788;4.654;2023-12-28T04:49:30;4.01;;;3.57;;
84866;SDS011;75123;51.788;4.654;2023-12-28T04:51:56;4.15;;;3.72;;
84866;SDS011;75123;51.788;4.654;2023-12-28T04:54:22;3.75;;;3.36;;
84866;SDS011;75123;51.788;4.654;2023-12-28T04:56:48;4.28;;;3.71;;
84866;SDS011;75123;51.788;4.654;2023-12-28T04:59:13;4.38;;;3.71;;
84866;SDS011;75123;51.788;4.654;2023-12-28T05:01:42;4.50;;;3.79;;
84866;SDS011;75123;51.788;4.654;2023-12-28T05:04:08;4.87;;;4.08;;
84866;SDS011;75123;51.788;4.654;2023-12-28T05:06:33;4.60;;;3.88;;
84866;SDS011;75123;51.788;4.654;2023-12-28T05:08:59;4.51;;;3.86;;
84866;SDS011;75123;51.788;4.654;2023-12-28T05:11:25;5.10;;;4.39;;
84866;SDS011;75123;51.788;4.654;2023-12-28T05:13:50;4.40;;;3.75;;
84866;SDS011;75123;51.788;4.654;2023-12-28T05:16:16;4.63;;;3.94;;
84866;SDS011;75123;51.788;4.654;2023-12-28T05:18:41;4.63;;;3.84;;
84866;SDS011;75123;51.788;4.654;2023-12-28T05:21:07;5.36;;;4.39;;
84866;SDS011;75123;51.788;4.654;2023-12-28T05:23:32;5.12;;;4.08;;
84866;SDS011;75123;51.788;4.654;2023-12-28T05:25:57;5.63;;;4.44;;
84866;SDS011;75123;51.788;4.654;2023-12-28T05:28:23;5.21;;;4.14;;
84866;SDS011;75123;51.788;4.654;2023-12-28T05:30:48;5.36;;;4.21;;
84866;SDS011;75123;51.788;4.654;2023-12-28T05:33:14;5.82;;;4.55;;
84866;SDS011;75123;51.788;4.654;2023-12-28T05:35:39;5.27;;;4.22;;
84866;SDS011;75123;51.788;4.654;2023-12-28T05:38:05;5.53;;;4.26;;
84866;SDS011;75123;51.788;4.654;2023-12-28T05:40:30;5.72;;;4.35;;
84866;SDS011;75123;51.788;4.654;2023-12-28T05:42:56;6.15;;;4.63;;
84866;SDS011;75123;51.788;4.654;2023-12-28T05:45:21;6.01;;;4.48;;
84866;SDS011;75123;51.788;4.654;2023-12-28T05:47:47;5.84;;;4.44;;
84866;SDS011;75123;51.788;4.654;2023-12-28T05:50:12;5.82;;;4.36;;
84866;SDS011;75123;51.788;4.654;2023-12-28T05:52:38;6.47;;;4.74;;
84866;SDS011;75123;51.788;4.654;2023-12-28T05:55:04;6.87;;;4.91;;
84866;SDS011;75123;51.788;4.654;2023-12-28T05:57:29;6.43;;;4.60;;
84866;SDS011;75123;51.788;4.654;2023-12-28T05:59:56;6.34;;;4.55;;
84866;SDS011;75123;51.788;4.654;2023-12-28T06:02:22;6.24;;;4.50;;
84866;SDS011;75123;51.788;4.654;2023-12-28T06:04:47;7.56;;;5.28;;
84866;SDS011;75123;51.788;4.654;2023-12-28T06:07:13;8.25;;;5.48;;
84866;SDS011;75123;51.788;4.654;2023-12-28T06:09:38;9.11;;;6.00;;
84866;SDS011;75123;51.788;4.654;2023-12-28T06:12:04;7.99;;;5.32;;
84866;SDS011;75123;51.788;4.654;2023-12-28T06:14:30;7.41;;;4.98;;
84866;SDS011;75123;51.788;4.654;2023-12-28T06:16:56;7.62;;;5.25;;
84866;SDS011;75123;51.788;4.654;2023-12-28T06:19:21;6.65;;;4.70;;
84866;SDS011;75123;51.788;4.654;2023-12-28T06:21:50;6.97;;;4.82;;
84866;SDS011;75123;51.788;4.654;2023-12-28T06:24:15;7.41;;;5.11;;
84866;SDS011;75123;51.788;4.654;2023-12-28T06:26:44;8.91;;;5.89;;
84866;SDS011;75123;51.788;4.654;2023-12-28T06:29:10;8.20;;;5.28;;
84866;SDS011;75123;51.788;4.654;2023-12-28T06:31:36;7.99;;;5.21;;
84866;SDS011;75123;51.788;4.654;2023-12-28T06:34:02;7.83;;;5.18;;
84866;SDS011;75123;51.788;4.654;2023-12-28T06:36:28;7.87;;;5.33;;
84866;SDS011;75123;51.788;4.654;2023-12-28T06:38:54;7.28;;;5.14;;
84866;SDS011;75123;51.788;4.654;2023-12-28T06:41:19;7.46;;;5.22;;
84866;SDS011;75123;51.788;4.654;2023-12-28T06:43:45;6.95;;;4.87;;
84866;SDS011;75123;51.788;4.654;2023-12-28T06:46:10;7.62;;;5.24;;
84866;SDS011;75123;51.788;4.654;2023-12-28T06:48:37;7.99;;;5.39;;
84866;SDS011;75123;51.788;4.654;2023-12-28T06:51:05;7.65;;;5.16;;
84866;SDS011;75123;51.788;4.654;2023-12-28T06:53:31;7.61;;;5.18;;
84866;SDS011;75123;51.788;4.654;2023-12-28T06:55:56;7.62;;;5.11;;
84866;SDS011;75123;51.788;4.654;2023-12-28T06:58:22;7.76;;;5.28;;
84866;SDS011;75123;51.788;4.654;2023-12-28T07:00:47;7.53;;;5.12;;
84866;SDS011;75123;51.788;4.654;2023-12-28T07:03:13;7.22;;;4.92;;
84866;SDS011;75123;51.788;4.654;2023-12-28T07:05:38;7.05;;;4.83;;
84866;SDS011;75123;51.788;4.654;2023-12-28T07:08:04;6.77;;;4.67;;
84866;SDS011;75123;51.788;4.654;2023-12-28T07:10:29;7.74;;;5.19;;
84866;SDS011;75123;51.788;4.654;2023-12-28T07:12:55;8.19;;;5.35;;
84866;SDS011;75123;51.788;4.654;2023-12-28T07:15:20;7.92;;;5.22;;
84866;SDS011;75123;51.788;4.654;2023-12-28T07:17:46;8.77;;;5.63;;
84866;SDS011;75123;51.788;4.654;2023-12-28T07:20:11;7.72;;;5.14;;
84866;SDS011;75123;51.788;4.654;2023-12-28T07:22:37;7.39;;;4.94;;
84866;SDS011;75123;51.788;4.654;2023-12-28T07:25:06;7.76;;;5.27;;
84866;SDS011;75123;51.788;4.654;2023-12-28T07:27:33;7.63;;;5.17;;
84866;SDS011;75123;51.788;4.654;2023-12-28T07:30:00;6.56;;;4.58;;
84866;SDS011;75123;51.788;4.654;2023-12-28T07:32:25;7.44;;;5.21;;
84866;SDS011;75123;51.788;4.654;2023-12-28T07:34:52;6.95;;;4.84;;
84866;SDS011;75123;51.788;4.654;2023-12-28T07:37:18;8.22;;;5.65;;
84866;SDS011;75123;51.788;4.654;2023-12-28T07:39:44;7.72;;;5.25;;
84866;SDS011;75123;51.788;4.654;2023-12-28T07:42:09;8.55;;;5.73;;
84866;SDS011;75123;51.788;4.654;2023-12-28T07:44:35;8.06;;;5.41;;
84866;SDS011;75123;51.788;4.654;2023-12-28T07:47:00;8.53;;;5.70;;
84866;SDS011;75123;51.788;4.654;2023-12-28T07:49:26;8.49;;;5.62;;
84866;SDS011;75123;51.788;4.654;2023-12-28T07:51:52;9.12;;;6.15;;
84866;SDS011;75123;51.788;4.654;2023-12-28T07:54:17;8.13;;;5.55;;
84866;SDS011;75123;51.788;4.654;2023-12-28T07:56:43;7.69;;;5.23;;
84866;SDS011;75123;51.788;4.654;2023-12-28T07:59:08;8.14;;;5.43;;
84866;SDS011;75123;51.788;4.654;2023-12-28T08:01:34;8.24;;;5.54;;
84866;SDS011;75123;51.788;4.654;2023-12-28T08:04:00;7.69;;;5.16;;
84866;SDS011;75123;51.788;4.654;2023-12-28T08:06:26;8.32;;;5.54;;
84866;SDS011;75123;51.788;4.654;2023-12-28T08:08:54;8.64;;;5.64;;
84866;SDS011;75123;51.788;4.654;2023-12-28T08:11:19;8.76;;;5.74;;
84866;SDS011;75123;51.788;4.654;2023-12-28T08:13:45;8.70;;;5.65;;
84866;SDS011;75123;51.788;4.654;2023-12-28T08:16:11;9.30;;;6.15;;
84866;SDS011;75123;51.788;4.654;2023-12-28T08:18:37;9.57;;;6.17;;
84866;SDS011;75123;51.788;4.654;2023-12-28T08:21:02;9.96;;;6.37;;
84866;SDS011;75123;51.788;4.654;2023-12-28T08:23:28;8.84;;;5.68;;
84866;SDS011;75123;51.788;4.654;2023-12-28T08:25:54;8.92;;;5.68;;
84866;SDS011;75123;51.788;4.654;2023-12-28T08:28:19;8.80;;;5.51;;
84866;SDS011;75123;51.788;4.654;2023-12-28T08:30:45;9.31;;;5.83;;
84866;SDS011;75123;51.788;4.654;2023-12-28T08:33:10;8.74;;;5.53;;
84866;SDS011;75123;51.788;4.654;2023-12-28T08:35:36;9.12;;;5.71;;
84866;SDS011;75123;51.788;4.654;2023-12-28T08:38:01;9.48;;;5.91;;
84866;SDS011;75123;51.788;4.654;2023-12-28T08:40:27;9.33;;;5.75;;
84866;SDS011;75123;51.788;4.654;2023-12-28T08:42:52;9.87;;;6.09;;
84866;SDS011;75123;51.788;4.654;2023-12-28T08:45:18;10.76;;;6.67;;
84866;SDS011;75123;51.788;4.654;2023-12-28T08:47:43;8.60;;;5.46;;
84866;SDS011;75123;51.788;4.654;2023-12-28T08:50:09;9.15;;;5.79;;
84866;SDS011;75123;51.788;4.654;2023-12-28T08:52:34;8.88;;;5.63;;
84866;SDS011;75123;51.788;4.654;2023-12-28T08:55:00;9.54;;;6.04;;
84866;SDS011;75123;51.788;4.654;2023-12-28T08:57:26;9.80;;;6.15;;
84866;SDS011;75123;51.788;4.654;2023-12-28T08:59:51;9.17;;;5.77;;
84866;SDS011;75123;51.788;4.654;2023-12-28T09:02:17;9.54;;;5.97;;
84866;SDS011;75123;51.788;4.654;2023-12-28T09:04:42;9.38;;;5.89;;
84866;SDS011;75123;51.788;4.654;2023-12-28T09:07:08;9.12;;;5.72;;
84866;SDS011;75123;51.788;4.654;2023-12-28T09:09:34;9.45;;;6.10;;
84866;SDS011;75123;51.788;4.654;2023-12-28T09:12:00;8.14;;;5.24;;
84866;SDS011;75123;51.788;4.654;2023-12-28T09:14:25;9.70;;;6.13;;
84866;SDS011;75123;51.788;4.654;2023-12-28T09:16:51;9.37;;;5.94;;
84866;SDS011;75123;51.788;4.654;2023-12-28T09:19:16;10.38;;;6.38;;
84866;SDS011;75123;51.788;4.654;2023-12-28T09:21:42;10.16;;;6.33;;
84866;SDS011;75123;51.788;4.654;2023-12-28T09:24:07;11.44;;;7.17;;
84866;SDS011;75123;51.788;4.654;2023-12-28T09:26:33;10.65;;;6.59;;
84866;SDS011;75123;51.788;4.654;2023-12-28T09:28:58;10.51;;;6.46;;
84866;SDS011;75123;51.788;4.654;2023-12-28T09:31:24;9.73;;;6.05;;
84866;SDS011;75123;51.788;4.654;2023-12-28T09:33:49;10.82;;;6.72;;
84866;SDS011;75123;51.788;4.654;2023-12-28T09:36:15;10.54;;;6.63;;
84866;SDS011;75123;51.788;4.654;2023-12-28T09:38:41;9.65;;;6.13;;
84866;SDS011;75123;51.788;4.654;2023-12-28T09:41:11;9.33;;;5.83;;
84866;SDS011;75123;51.788;4.654;2023-12-28T09:43:52;8.95;;;5.54;;
84866;SDS011;75123;51.788;4.654;2023-12-28T09:46:19;10.71;;;6.53;;
84866;SDS011;75123;51.788;4.654;2023-12-28T09:48:45;10.02;;;6.22;;
84866;SDS011;75123;51.788;4.654;2023-12-28T09:51:12;10.02;;;6.13;;
84866;SDS011;75123;51.788;4.654;2023-12-28T09:53:37;9.71;;;6.02;;
84866;SDS011;75123;51.788;4.654;2023-12-28T09:56:03;9.21;;;5.73;;
84866;SDS011;75123;51.788;4.654;2023-12-28T09:58:29;9.94;;;6.20;;
84866;SDS011;75123;51.788;4.654;2023-12-28T10:00:57;8.58;;;5.40;;
84866;SDS011;75123;51.788;4.654;2023-12-28T10:03:24;9.21;;;5.82;;
84866;SDS011;75123;51.788;4.654;2023-12-28T10:05:50;8.81;;;5.61;;
84866;SDS011;75123;51.788;4.654;2023-12-28T10:08:15;9.12;;;5.74;;
84866;SDS011;75123;51.788;4.654;2023-12-28T10:10:41;9.81;;;6.16;;
84866;SDS011;75123;51.788;4.654;2023-12-28T10:13:08;10.19;;;6.40;;
84866;SDS011;75123;51.788;4.654;2023-12-28T10:15:35;9.49;;;5.92;;
84866;SDS011;75123;51.788;4.654;2023-12-28T10:18:01;10.00;;;6.21;;
84866;SDS011;75123;51.788;4.654;2023-12-28T10:20:29;10.20;;;6.27;;
84866;SDS011;75123;51.788;4.654;2023-12-28T10:22:54;10.76;;;6.54;;
84866;SDS011;75123;51.788;4.654;2023-12-28T10:25:20;11.17;;;6.71;;
84866;SDS011;75123;51.788;4.654;2023-12-28T10:27:45;11.80;;;7.07;;
84866;SDS011;75123;51.788;4.654;2023-12-28T10:30:11;10.78;;;6.51;;
84866;SDS011;75123;51.788;4.654;2023-12-28T10:32:40;10.49;;;6.31;;
84866;SDS011;75123;51.788;4.654;2023-12-28T10:35:06;11.00;;;6.68;;
84866;SDS011;75123;51.788;4.654;2023-12-28T10:37:32;10.85;;;6.75;;
84866;SDS011;75123;51.788;4.654;2023-12-28T10:40:00;11.05;;;6.90;;
84866;SDS011;75123;51.788;4.654;2023-12-28T10:42:35;10.51;;;6.49;;
84866;SDS011;75123;51.788;4.654;2023-12-28T10:45:06;10.73;;;6.58;;
84866;SDS011;75123;51.788;4.654;2023-12-28T10:47:32;10.69;;;6.55;;
84866;SDS011;75123;51.788;4.654;2023-12-28T10:50:00;10.82;;;6.58;;
84866;SDS011;75123;51.788;4.654;2023-12-28T10:52:30;11.51;;;7.05;;
84866;SDS011;75123;51.788;4.654;2023-12-28T10:55:07;11.54;;;7.02;;
84866;SDS011;75123;51.788;4.654;2023-12-28T10:58:28;11.27;;;6.85;;
84866;SDS011;75123;51.788;4.654;2023-12-28T11:00:38;10.52;;;6.43;;
84866;SDS011;75123;51.788;4.654;2023-12-28T11:03:08;11.36;;;6.83;;
84866;SDS011;75123;51.788;4.654;2023-12-28T11:05:37;10.79;;;6.54;;
84866;SDS011;75123;51.788;4.654;2023-12-28T11:08:06;10.73;;;6.51;;
84866;SDS011;75123;51.788;4.654;2023-12-28T11:10:33;11.28;;;6.86;;
84866;SDS011;75123;51.788;4.654;2023-12-28T11:13:00;11.89;;;7.07;;
84866;SDS011;75123;51.788;4.654;2023-12-28T11:15:26;13.27;;;8.02;;
84866;SDS011;75123;51.788;4.654;2023-12-28T11:17:52;11.04;;;6.77;;
84866;SDS011;75123;51.788;4.654;2023-12-28T11:20:17;11.45;;;6.99;;
84866;SDS011;75123;51.788;4.654;2023-12-28T11:22:44;12.19;;;7.43;;
84866;SDS011;75123;51.788;4.654;2023-12-28T11:25:16;11.00;;;6.81;;
84866;SDS011;75123;51.788;4.654;2023-12-28T11:27:43;12.28;;;7.61;;
84866;SDS011;75123;51.788;4.654;2023-12-28T11:30:12;11.72;;;7.21;;
84866;SDS011;75123;51.788;4.654;2023-12-28T11:32:41;11.56;;;7.09;;
84866;SDS011;75123;51.788;4.654;2023-12-28T11:35:11;11.06;;;6.72;;
84866;SDS011;75123;51.788;4.654;2023-12-28T11:37:40;11.72;;;7.02;;
84866;SDS011;75123;51.788;4.654;2023-12-28T11:40:12;11.82;;;7.11;;
84866;SDS011;75123;51.788;4.654;2023-12-28T11:42:50;11.72;;;7.23;;
84866;SDS011;75123;51.788;4.654;2023-12-28T11:45:20;11.16;;;6.77;;
84866;SDS011;75123;51.788;4.654;2023-12-28T11:47:47;11.50;;;7.09;;
84866;SDS011;75123;51.788;4.654;2023-12-28T11:50:24;11.71;;;7.21;;
84866;SDS011;75123;51.788;4.654;2023-12-28T11:52:49;13.42;;;8.11;;
84866;SDS011;75123;51.788;4.654;2023-12-28T11:55:20;11.09;;;6.84;;
84866;SDS011;75123;51.788;4.654;2023-12-28T11:57:47;11.91;;;7.27;;
84866;SDS011;75123;51.788;4.654;2023-12-28T12:00:13;11.65;;;7.00;;
84866;SDS011;75123;51.788;4.654;2023-12-28T12:02:42;15.25;;;9.02;;
84866;SDS011;75123;51.788;4.654;2023-12-28T12:05:09;11.90;;;7.13;;
84866;SDS011;75123;51.788;4.654;2023-12-28T12:07:35;10.99;;;6.66;;
84866;SDS011;75123;51.788;4.654;2023-12-28T12:10:01;11.50;;;6.95;;
84866;SDS011;75123;51.788;4.654;2023-12-28T12:12:26;11.59;;;7.05;;
84866;SDS011;75123;51.788;4.654;2023-12-28T12:14:52;12.57;;;7.69;;
84866;SDS011;75123;51.788;4.654;2023-12-28T12:17:18;11.39;;;6.94;;
84866;SDS011;75123;51.788;4.654;2023-12-28T12:19:44;12.87;;;7.73;;
84866;SDS011;75123;51.788;4.654;2023-12-28T12:22:13;12.80;;;7.59;;
84866;SDS011;75123;51.788;4.654;2023-12-28T12:24:39;11.92;;;7.23;;
84866;SDS011;75123;51.788;4.654;2023-12-28T12:27:06;10.80;;;6.63;;
84866;SDS011;75123;51.788;4.654;2023-12-28T12:29:32;11.08;;;6.89;;
84866;SDS011;75123;51.788;4.654;2023-12-28T12:31:57;11.00;;;6.75;;
84866;SDS011;75123;51.788;4.654;2023-12-28T12:34:23;11.23;;;6.82;;
84866;SDS011;75123;51.788;4.654;2023-12-28T12:36:49;11.32;;;6.86;;
84866;SDS011;75123;51.788;4.654;2023-12-28T12:39:17;10.70;;;6.49;;
84866;SDS011;75123;51.788;4.654;2023-12-28T12:41:42;10.76;;;6.54;;
84866;SDS011;75123;51.788;4.654;2023-12-28T12:44:11;11.89;;;7.09;;
84866;SDS011;75123;51.788;4.654;2023-12-28T12:46:36;12.96;;;7.70;;
84866;SDS011;75123;51.788;4.654;2023-12-28T12:49:02;12.27;;;7.41;;
84866;SDS011;75123;51.788;4.654;2023-12-28T12:51:27;12.14;;;7.43;;
84866;SDS011;75123;51.788;4.654;2023-12-28T12:54:00;12.72;;;7.80;;
84866;SDS011;75123;51.788;4.654;2023-12-28T12:56:26;12.34;;;7.57;;
84866;SDS011;75123;51.788;4.654;2023-12-28T12:58:54;12.16;;;7.46;;
84866;SDS011;75123;51.788;4.654;2023-12-28T13:01:20;12.66;;;7.89;;
84866;SDS011;75123;51.788;4.654;2023-12-28T13:03:46;12.71;;;7.76;;
84866;SDS011;75123;51.788;4.654;2023-12-28T13:06:11;11.15;;;6.87;;
84866;SDS011;75123;51.788;4.654;2023-12-28T13:08:37;11.60;;;7.07;;
84866;SDS011;75123;51.788;4.654;2023-12-28T13:11:02;12.02;;;7.38;;
84866;SDS011;75123;51.788;4.654;2023-12-28T13:13:28;10.78;;;6.65;;
84866;SDS011;75123;51.788;4.654;2023-12-28T13:15:54;10.88;;;6.76;;
84866;SDS011;75123;51.788;4.654;2023-12-28T13:18:19;12.17;;;7.50;;
84866;SDS011;75123;51.788;4.654;2023-12-28T13:20:45;11.34;;;7.00;;
84866;SDS011;75123;51.788;4.654;2023-12-28T13:23:11;11.79;;;7.28;;
84866;SDS011;75123;51.788;4.654;2023-12-28T13:25:37;11.26;;;7.01;;
84866;SDS011;75123;51.788;4.654;2023-12-28T13:28:02;11.62;;;7.12;;
84866;SDS011;75123;51.788;4.654;2023-12-28T13:30:28;12.06;;;7.26;;
84866;SDS011;75123;51.788;4.654;2023-12-28T13:32:54;11.56;;;7.06;;
84866;SDS011;75123;51.788;4.654;2023-12-28T13:35:23;11.06;;;6.74;;
84866;SDS011;75123;51.788;4.654;2023-12-28T13:37:48;12.25;;;7.38;;
84866;SDS011;75123;51.788;4.654;2023-12-28T13:40:14;11.97;;;7.29;;
84866;SDS011;75123;51.788;4.654;2023-12-28T13:42:40;12.07;;;7.46;;
84866;SDS011;75123;51.788;4.654;2023-12-28T13:45:06;12.19;;;7.52;;
84866;SDS011;75123;51.788;4.654;2023-12-28T13:47:32;12.66;;;7.71;;
84866;SDS011;75123;51.788;4.654;2023-12-28T13:49:57;11.84;;;7.08;;
84866;SDS011;75123;51.788;4.654;2023-12-28T13:52:23;11.08;;;6.70;;
84866;SDS011;75123;51.788;4.654;2023-12-28T13:54:48;11.52;;;7.07;;
84866;SDS011;75123;51.788;4.654;2023-12-28T13:57:13;12.04;;;7.32;;
84866;SDS011;75123;51.788;4.654;2023-12-28T13:59:39;11.41;;;7.03;;
84866;SDS011;75123;51.788;4.654;2023-12-28T14:02:05;11.32;;;7.04;;
84866;SDS011;75123;51.788;4.654;2023-12-28T14:04:30;10.72;;;6.68;;
84866;SDS011;75123;51.788;4.654;2023-12-28T14:06:56;9.61;;;6.07;;
84866;SDS011;75123;51.788;4.654;2023-12-28T14:09:21;10.52;;;6.56;;
84866;SDS011;75123;51.788;4.654;2023-12-28T14:11:47;10.99;;;6.79;;
84866;SDS011;75123;51.788;4.654;2023-12-28T14:14:13;11.60;;;7.09;;
84866;SDS011;75123;51.788;4.654;2023-12-28T14:16:39;10.33;;;6.40;;
84866;SDS011;75123;51.788;4.654;2023-12-28T14:19:04;10.45;;;6.51;;
84866;SDS011;75123;51.788;4.654;2023-12-28T14:21:33;10.72;;;6.67;;
84866;SDS011;75123;51.788;4.654;2023-12-28T14:24:03;11.00;;;6.97;;
84866;SDS011;75123;51.788;4.654;2023-12-28T14:26:28;11.71;;;7.40;;
84866;SDS011;75123;51.788;4.654;2023-12-28T14:28:57;10.72;;;6.69;;
84866;SDS011;75123;51.788;4.654;2023-12-28T14:31:24;11.59;;;7.21;;
84866;SDS011;75123;51.788;4.654;2023-12-28T14:33:51;10.36;;;6.52;;
84866;SDS011;75123;51.788;4.654;2023-12-28T14:36:30;11.41;;;7.12;;
84866;SDS011;75123;51.788;4.654;2023-12-28T14:39:00;11.15;;;6.88;;
84866;SDS011;75123;51.788;4.654;2023-12-28T14:41:27;10.64;;;6.60;;